Buffalo Lake, North Carolina
Current Conditions -  °F | °C
As of 4:55 PM on Monday 22 Dec 2014 (Local Time) from KTTA Reporting Station
Haze Haze  
Wind Chill: 33°   Ceiling: 400
Heat Index: 39°   Visibility: 5mi
Dew Point: 39°   Wind: 8mph
Humidity: 100%   Direction: 20°NNE
Pressure: 30.07"   Gusts: NA
Location:  35.493°N, 79.1765°W
Report Text: KTTA 222155Z AUTO 02007KT 5SM BR OVC004 04/04 A3007 RMK AO2 T00370037
Loading
Personal Weather Stations






























Interactive Weather Map New forecast layout! Learn more

10-Day Weather Forecast

Advertisements
Track Severe Weather on mobile